Terminal Aerodrome Forecast
Issued by NWS

Home | Current Version | Previous Version | Text Only | Print | Product List | Glossary On
Versions: 1 2 3 4 5 6 7 8 9 10 11 12 13 14 15
000
FTUS43 KMPX 271120
TAFAXN
TAF
KAXN 271120Z 2712/2812 15006KT P6SM VCSH SCT040 OVC080
     FM271600 16010KT P6SM SCT040 BKN200 PROB30 2722/2801 TSRA
      OVC040CB
     FM280400 15006KT P6SM SCT200
     FM280900 14006KT 4SM BR SCT070 BKN100=

USA.gov is the U.S. government's official web portal to all federal, state and local government web resources and services.